Mountain Fork River (Oklahoma), Eagleville (07339000)

StateOklahomaCurrentUnknown (288 cfs)
RiverMountain Fork RiverFlood - The river is flooding. Obstacles can be treacherous or deadly. The river should be avoided at this stage for casual trips and definitely for the inexperienced. Trips should be attempted only with protective gear and equipment.Flood(none)
Updated2019-10-14 2:30 (1 hour ago)High - The river is high and potentially dangerous, especially for the young and / or inexperienced. Normal stream obstacles are sometimes difficult to navigate. Extended distances can be attempted, but canoe travel may not be advisable.High(none)
Discharge288 cfs (median: 314 cfs)Good - Conditions are ideal for a canoe or kayak. Boats typically will drag on fewer than one-quarter of riffles, if at all, and portages are unnecessary or rare. Normal float lengths can be attempted without a problem.Good(none)
Height1.12 feetLow - River is low but can still be floated. Some riffles are okay but most come with significant dragging and might need a portage. Float lengths should be reduced to accommodate low flow, dragging, and portages.Low(none)
TrendSteady (falling over 24 hours)Poor - River is too low to float comfortably. Most or all riffles will drag or must be portaged and some obstacles (such as slick shelf rock) cause undue problems. Avoid the river at this stage for casual paddling trips.Poor(none)
USGSExternal icon USGS Site for Eagleville (07339000)LocationExternal icon Google Maps

Trending Data

Plot Image
ObservationHeightDischargeMaximum
Discharge
Minimum
Discharge
Mean
Discharge
P05P10P20P25P50
(Median)
P75P80P90P95
2019-10-14 02:30 1.12 288 8630 (1999) 106 (1981) 774 112 143 163 190 314 545 880 1510 4690
2019-10-14 01:30 1.12 288 8630 (1999) 106 (1981) 774 112 143 163 190 314 545 880 1510 4690
2019-10-14 00:30 1.13 292 8630 (1999) 106 (1981) 774 112 143 163 190 314 545 880 1510 4690
2019-10-13 23:30 1.13 292 9020 (1999) 104 (1996) 929 111 129 169 182 321 663 826 1840 7000
2019-10-13 22:30 1.13 292 9020 (1999) 104 (1996) 929 111 129 169 182 321 663 826 1840 7000
2019-10-13 21:30 1.14 296 9020 (1999) 104 (1996) 929 111 129 169 182 321 663 826 1840 7000
2019-10-13 20:30 1.15 301 9020 (1999) 104 (1996) 929 111 129 169 182 321 663 826 1840 7000
2019-10-13 19:30 1.15 301 9020 (1999) 104 (1996) 929 111 129 169 182 321 663 826 1840 7000
2019-10-13 18:30 1.15 301 9020 (1999) 104 (1996) 929 111 129 169 182 321 663 826 1840 7000
2019-10-13 17:30 1.16 305 9020 (1999) 104 (1996) 929 111 129 169 182 321 663 826 1840 7000
2019-10-13 16:30 1.16 305 9020 (1999) 104 (1996) 929 111 129 169 182 321 663 826 1840 7000
2019-10-13 15:30 1.17 309 9020 (1999) 104 (1996) 929 111 129 169 182 321 663 826 1840 7000
2019-10-13 14:30 1.19 317 9020 (1999) 104 (1996) 929 111 129 169 182 321 663 826 1840 7000
2019-10-13 13:30 1.18 313 9020 (1999) 104 (1996) 929 111 129 169 182 321 663 826 1840 7000
2019-10-13 12:30 1.21 325 9020 (1999) 104 (1996) 929 111 129 169 182 321 663 826 1840 7000
2019-10-13 11:30 1.22 329 9020 (1999) 104 (1996) 929 111 129 169 182 321 663 826 1840 7000
2019-10-13 10:30 1.23 334 9020 (1999) 104 (1996) 929 111 129 169 182 321 663 826 1840 7000
2019-10-13 09:30 1.24 338 9020 (1999) 104 (1996) 929 111 129 169 182 321 663 826 1840 7000
2019-10-13 08:30 1.24 338 9020 (1999) 104 (1996) 929 111 129 169 182 321 663 826 1840 7000
2019-10-13 07:30 1.26 346 9020 (1999) 104 (1996) 929 111 129 169 182 321 663 826 1840 7000
2019-10-13 06:30 1.27 351 9020 (1999) 104 (1996) 929 111 129 169 182 321 663 826 1840 7000
2019-10-13 05:30 1.28 355 9020 (1999) 104 (1996) 929 111 129 169 182 321 663 826 1840 7000
2019-10-13 04:30 1.30 364 9020 (1999) 104 (1996) 929 111 129 169 182 321 663 826 1840 7000
2019-10-13 03:30 1.31 368 9020 (1999) 104 (1996) 929 111 129 169 182 321 663 826 1840 7000
2019-10-13 02:30 1.32 373 9020 (1999) 104 (1996) 929 111 129 169 182 321 663 826 1840 7000
2019-10-13 01:30 1.34 382 9020 (1999) 104 (1996) 929 111 129 169 182 321 663 826 1840 7000
2019-10-13 00:30 1.36 391 9020 (1999) 104 (1996) 929 111 129 169 182 321 663 826 1840 7000
2019-10-12 23:30 1.39 404 9190 (1999) 96 (1970) 974 119 139 169 192 303 418 602 2520 7760
2019-10-12 22:30 1.41 413 9190 (1999) 96 (1970) 974 119 139 169 192 303 418 602 2520 7760
2019-10-12 21:30 1.43 423 9190 (1999) 96 (1970) 974 119 139 169 192 303 418 602 2520 7760
2019-10-12 20:30 1.46 437 9190 (1999) 96 (1970) 974 119 139 169 192 303 418 602 2520 7760
2019-10-12 19:30 1.50 456 9190 (1999) 96 (1970) 974 119 139 169 192 303 418 602 2520 7760
2019-10-12 18:30 1.53 470 9190 (1999) 96 (1970) 974 119 139 169 192 303 418 602 2520 7760
2019-10-12 17:30 1.57 490 9190 (1999) 96 (1970) 974 119 139 169 192 303 418 602 2520 7760
2019-10-12 16:30 1.61 510 9190 (1999) 96 (1970) 974 119 139 169 192 303 418 602 2520 7760
2019-10-12 15:30 1.66 535 9190 (1999) 96 (1970) 974 119 139 169 192 303 418 602 2520 7760
2019-10-12 14:30 1.71 561 9190 (1999) 96 (1970) 974 119 139 169 192 303 418 602 2520 7760
2019-10-12 13:30 1.77 593 9190 (1999) 96 (1970) 974 119 139 169 192 303 418 602 2520 7760
2019-10-12 12:30 1.83 625 9190 (1999) 96 (1970) 974 119 139 169 192 303 418 602 2520 7760
2019-10-12 11:30 1.90 664 9190 (1999) 96 (1970) 974 119 139 169 192 303 418 602 2520 7760
2019-10-12 10:30 1.97 704 9190 (1999) 96 (1970) 974 119 139 169 192 303 418 602 2520 7760
2019-10-12 09:30 2.04 745 9190 (1999) 96 (1970) 974 119 139 169 192 303 418 602 2520 7760
2019-10-12 08:30 2.12 792 9190 (1999) 96 (1970) 974 119 139 169 192 303 418 602 2520 7760
2019-10-12 07:30 2.21 847 9190 (1999) 96 (1970) 974 119 139 169 192 303 418 602 2520 7760
2019-10-12 06:30 2.31 910 9190 (1999) 96 (1970) 974 119 139 169 192 303 418 602 2520 7760
2019-10-12 05:30 2.42 981 9190 (1999) 96 (1970) 974 119 139 169 192 303 418 602 2520 7760
2019-10-12 04:30 2.55 1070 9190 (1999) 96 (1970) 974 119 139 169 192 303 418 602 2520 7760
2019-10-12 03:30 2.68 1160 9190 (1999) 96 (1970) 974 119 139 169 192 303 418 602 2520 7760
2019-10-12 02:30 2.81 1250 9190 (1999) 96 (1970) 974 119 139 169 192 303 418 602 2520 7760
2019-10-12 01:30 2.94 1350 9190 (1999) 96 (1970) 974 119 139 169 192 303 418 602 2520 7760
2019-10-12 00:30 3.02 1410 9190 (1999) 96 (1970) 974 119 139 169 192 303 418 602 2520 7760
2019-10-11 23:30 2.95 1350 9190 (1999) 30 (1970) 820 102 119 158 175 303 468 642 2070 4880
2019-10-11 22:30 2.48 1020 9190 (1999) 30 (1970) 820 102 119 158 175 303 468 642 2070 4880
2019-10-11 21:30 1.59 500 9190 (1999) 30 (1970) 820 102 119 158 175 303 468 642 2070 4880
2019-10-11 20:30 1.17 309 9190 (1999) 30 (1970) 820 102 119 158 175 303 468 642 2070 4880
2019-10-11 19:30 1.14 296 9190 (1999) 30 (1970) 820 102 119 158 175 303 468 642 2070 4880
2019-10-11 18:30 1.14 296 9190 (1999) 30 (1970) 820 102 119 158 175 303 468 642 2070 4880
2019-10-11 17:30 1.13 292 9190 (1999) 30 (1970) 820 102 119 158 175 303 468 642 2070 4880
2019-10-11 16:30 1.14 296 9190 (1999) 30 (1970) 820 102 119 158 175 303 468 642 2070 4880
2019-10-11 15:30 1.14 296 9190 (1999) 30 (1970) 820 102 119 158 175 303 468 642 2070 4880
2019-10-11 14:30 1.15 301 9190 (1999) 30 (1970) 820 102 119 158 175 303 468 642 2070 4880
2019-10-11 13:30 1.15 301 9190 (1999) 30 (1970) 820 102 119 158 175 303 468 642 2070 4880
2019-10-11 12:30 1.16 305 9190 (1999) 30 (1970) 820 102 119 158 175 303 468 642 2070 4880
2019-10-11 11:30 1.17 309 9190 (1999) 30 (1970) 820 102 119 158 175 303 468 642 2070 4880
2019-10-11 10:30 1.17 309 9190 (1999) 30 (1970) 820 102 119 158 175 303 468 642 2070 4880
2019-10-11 09:30 1.14 296 9190 (1999) 30 (1970) 820 102 119 158 175 303 468 642 2070 4880
2019-10-11 08:30 1.15 301 9190 (1999) 30 (1970) 820 102 119 158 175 303 468 642 2070 4880
2019-10-11 07:30 1.15 301 9190 (1999) 30 (1970) 820 102 119 158 175 303 468 642 2070 4880
2019-10-11 06:30 1.15 301 9190 (1999) 30 (1970) 820 102 119 158 175 303 468 642 2070 4880
2019-10-11 05:30 1.11 284 9190 (1999) 30 (1970) 820 102 119 158 175 303 468 642 2070 4880
2019-10-11 04:30 1.17 309 9190 (1999) 30 (1970) 820 102 119 158 175 303 468 642 2070 4880
2019-10-11 03:30 1.16 305 9190 (1999) 30 (1970) 820 102 119 158 175 303 468 642 2070 4880
2019-10-11 02:30 1.18 313 9190 (1999) 30 (1970) 820 102 119 158 175 303 468 642 2070 4880
2019-10-11 01:30 1.20 321 9190 (1999) 30 (1970) 820 102 119 158 175 303 468 642 2070 4880
2019-10-11 00:30 1.21 325 9190 (1999) 30 (1970) 820 102 119 158 175 303 468 642 2070 4880
2019-10-10 23:30 1.20 321 7350 (1999) 74 (1970) 569 115 139 169 182 302 440 513 1170 1990
2019-10-10 22:30 1.21 325 7350 (1999) 74 (1970) 569 115 139 169 182 302 440 513 1170 1990
2019-10-10 21:30 1.23 334 7350 (1999) 74 (1970) 569 115 139 169 182 302 440 513 1170 1990
2019-10-10 20:30 1.24 338 7350 (1999) 74 (1970) 569 115 139 169 182 302 440 513 1170 1990
2019-10-10 19:30 1.26 346 7350 (1999) 74 (1970) 569 115 139 169 182 302 440 513 1170 1990
2019-10-10 18:30 1.27 351 7350 (1999) 74 (1970) 569 115 139 169 182 302 440 513 1170 1990
2019-10-10 17:30 1.29 359 7350 (1999) 74 (1970) 569 115 139 169 182 302 440 513 1170 1990
2019-10-10 16:30 1.31 368 7350 (1999) 74 (1970) 569 115 139 169 182 302 440 513 1170 1990
2019-10-10 15:30 1.31 368 7350 (1999) 74 (1970) 569 115 139 169 182 302 440 513 1170 1990
2019-10-10 14:30 1.36 391 7350 (1999) 74 (1970) 569 115 139 169 182 302 440 513 1170 1990
2019-10-10 13:30 1.35 386 7350 (1999) 74 (1970) 569 115 139 169 182 302 440 513 1170 1990
2019-10-10 12:30 1.41 413 7350 (1999) 74 (1970) 569 115 139 169 182 302 440 513 1170 1990
2019-10-10 11:30 1.42 418 7350 (1999) 74 (1970) 569 115 139 169 182 302 440 513 1170 1990
2019-10-10 10:30 1.45 432 7350 (1999) 74 (1970) 569 115 139 169 182 302 440 513 1170 1990
2019-10-10 09:30 1.53 470 7350 (1999) 74 (1970) 569 115 139 169 182 302 440 513 1170 1990
2019-10-10 08:30 1.57 490 7350 (1999) 74 (1970) 569 115 139 169 182 302 440 513 1170 1990
2019-10-10 07:30 1.61 510 7350 (1999) 74 (1970) 569 115 139 169 182 302 440 513 1170 1990
2019-10-10 06:30 1.66 535 7350 (1999) 74 (1970) 569 115 139 169 182 302 440 513 1170 1990
2019-10-10 05:30 1.71 561 7350 (1999) 74 (1970) 569 115 139 169 182 302 440 513 1170 1990
2019-10-10 04:30 1.76 588 7350 (1999) 74 (1970) 569 115 139 169 182 302 440 513 1170 1990
2019-10-10 03:30 1.82 620 7350 (1999) 74 (1970) 569 115 139 169 182 302 440 513 1170 1990
2019-10-10 02:30 1.89 659 7350 (1999) 74 (1970) 569 115 139 169 182 302 440 513 1170 1990
2019-10-10 01:30 1.95 692 7350 (1999) 74 (1970) 569 115 139 169 182 302 440 513 1170 1990
2019-10-10 00:30 2.01 727 7350 (1999) 74 (1970) 569 115 139 169 182 302 440 513 1170 1990
2019-10-09 23:30 2.04 745 4350 (2010) 95 (1996) 624 122 135 176 186 308 493 807 1950 3160
2019-10-09 22:30 2.02 733 4350 (2010) 95 (1996) 624 122 135 176 186 308 493 807 1950 3160
2019-10-09 21:30 1.90 664 4350 (2010) 95 (1996) 624 122 135 176 186 308 493 807 1950 3160
2019-10-09 20:30 1.63 520 4350 (2010) 95 (1996) 624 122 135 176 186 308 493 807 1950 3160
2019-10-09 19:30 1.30 364 4350 (2010) 95 (1996) 624 122 135 176 186 308 493 807 1950 3160
2019-10-09 18:30 1.13 292 4350 (2010) 95 (1996) 624 122 135 176 186 308 493 807 1950 3160
2019-10-09 17:30 1.11 284 4350 (2010) 95 (1996) 624 122 135 176 186 308 493 807 1950 3160
2019-10-09 16:30 1.12 288 4350 (2010) 95 (1996) 624 122 135 176 186 308 493 807 1950 3160
2019-10-09 15:30 1.12 288 4350 (2010) 95 (1996) 624 122 135 176 186 308 493 807 1950 3160
2019-10-09 14:30 1.12 288 4350 (2010) 95 (1996) 624 122 135 176 186 308 493 807 1950 3160
2019-10-09 13:30 1.14 296 4350 (2010) 95 (1996) 624 122 135 176 186 308 493 807 1950 3160
2019-10-09 12:30 1.14 296 4350 (2010) 95 (1996) 624 122 135 176 186 308 493 807 1950 3160
2019-10-09 11:30 1.15 301 4350 (2010) 95 (1996) 624 122 135 176 186 308 493 807 1950 3160
2019-10-09 10:30 1.16 305 4350 (2010) 95 (1996) 624 122 135 176 186 308 493 807 1950 3160
2019-10-09 09:30 1.16 305 4350 (2010) 95 (1996) 624 122 135 176 186 308 493 807 1950 3160
2019-10-09 08:30 1.16 305 4350 (2010) 95 (1996) 624 122 135 176 186 308 493 807 1950 3160
2019-10-09 07:30 1.17 309 4350 (2010) 95 (1996) 624 122 135 176 186 308 493 807 1950 3160
2019-10-09 06:30 1.18 313 4350 (2010) 95 (1996) 624 122 135 176 186 308 493 807 1950 3160
2019-10-09 05:30 1.19 317 4350 (2010) 95 (1996) 624 122 135 176 186 308 493 807 1950 3160
2019-10-09 04:30 1.19 317 4350 (2010) 95 (1996) 624 122 135 176 186 308 493 807 1950 3160
2019-10-09 03:30 1.20 321 4350 (2010) 95 (1996) 624 122 135 176 186 308 493 807 1950 3160
2019-10-09 02:30 1.21 325 4350 (2010) 95 (1996) 624 122 135 176 186 308 493 807 1950 3160
2019-10-09 01:30 1.22 329 4350 (2010) 95 (1996) 624 122 135 176 186 308 493 807 1950 3160
2019-10-09 00:30 1.23 334 4350 (2010) 95 (1996) 624 122 135 176 186 308 493 807 1950 3160
2019-10-08 23:30 1.24 338 5650 (2010) 94 (1996) 624 127 147 167 183 329 551 756 1570 2620
2019-10-08 22:30 1.25 342 5650 (2010) 94 (1996) 624 127 147 167 183 329 551 756 1570 2620
2019-10-08 21:30 1.26 346 5650 (2010) 94 (1996) 624 127 147 167 183 329 551 756 1570 2620
2019-10-08 20:30 1.28 355 5650 (2010) 94 (1996) 624 127 147 167 183 329 551 756 1570 2620
2019-10-08 19:30 1.29 359 5650 (2010) 94 (1996) 624 127 147 167 183 329 551 756 1570 2620
2019-10-08 18:30 1.31 265 5650 (2010) 94 (1996) 624 127 147 167 183 329 551 756 1570 2620
2019-10-08 17:30 1.32 269 5650 (2010) 94 (1996) 624 127 147 167 183 329 551 756 1570 2620
2019-10-08 16:30 1.34 278 5650 (2010) 94 (1996) 624 127 147 167 183 329 551 756 1570 2620
2019-10-08 15:30 1.37 290 5650 (2010) 94 (1996) 624 127 147 167 183 329 551 756 1570 2620
2019-10-08 14:30 1.39 298 5650 (2010) 94 (1996) 624 127 147 167 183 329 551 756 1570 2620
2019-10-08 13:30 1.42 311 5650 (2010) 94 (1996) 624 127 147 167 183 329 551 756 1570 2620
2019-10-08 12:30 1.45 324 5650 (2010) 94 (1996) 624 127 147 167 183 329 551 756 1570 2620
2019-10-08 11:30 1.48 337 5650 (2010) 94 (1996) 624 127 147 167 183 329 551 756 1570 2620
2019-10-08 10:30 1.52 355 5650 (2010) 94 (1996) 624 127 147 167 183 329 551 756 1570 2620
2019-10-08 09:30 1.54 364 5650 (2010) 94 (1996) 624 127 147 167 183 329 551 756 1570 2620
2019-10-08 08:30 1.58 382 5650 (2010) 94 (1996) 624 127 147 167 183 329 551 756 1570 2620
2019-10-08 07:30 1.61 396 5650 (2010) 94 (1996) 624 127 147 167 183 329 551 756 1570 2620
2019-10-08 06:30 1.66 420 5650 (2010) 94 (1996) 624 127 147 167 183 329 551 756 1570 2620
2019-10-08 05:30 1.70 440 5650 (2010) 94 (1996) 624 127 147 167 183 329 551 756 1570 2620
2019-10-08 04:30 1.75 465 5650 (2010) 94 (1996) 624 127 147 167 183 329 551 756 1570 2620
2019-10-08 03:30 1.81 495 5650 (2010) 94 (1996) 624 127 147 167 183 329 551 756 1570 2620
2019-10-08 02:30 1.87 527 5650 (2010) 94 (1996) 624 127 147 167 183 329 551 756 1570 2620
2019-10-08 01:30 1.93 559 5650 (2010) 94 (1996) 624 127 147 167 183 329 551 756 1570 2620
2019-10-08 00:30 2.00 597 5650 (2010) 94 (1996) 624 127 147 167 183 329 551 756 1570 2620
2019-10-07 23:30 2.07 637 5180 (2010) 112 (1989) 520 126 143 176 195 324 520 709 1070 1630
2019-10-07 22:30 2.14 677 5180 (2010) 112 (1989) 520 126 143 176 195 324 520 709 1070 1630
2019-10-07 21:30 2.19 707 5180 (2010) 112 (1989) 520 126 143 176 195 324 520 709 1070 1630
2019-10-07 20:30 2.20 713 5180 (2010) 112 (1989) 520 126 143 176 195 324 520 709 1070 1630
2019-10-07 19:30 2.12 666 5180 (2010) 112 (1989) 520 126 143 176 195 324 520 709 1070 1630
2019-10-07 18:30 1.91 548 5180 (2010) 112 (1989) 520 126 143 176 195 324 520 709 1070 1630
2019-10-07 17:30 1.60 392 5180 (2010) 112 (1989) 520 126 143 176 195 324 520 709 1070 1630
2019-10-07 16:30 1.42 311 5180 (2010) 112 (1989) 520 126 143 176 195 324 520 709 1070 1630
2019-10-07 15:30 1.39 298 5180 (2010) 112 (1989) 520 126 143 176 195 324 520 709 1070 1630
2019-10-07 14:30 1.41 307 5180 (2010) 112 (1989) 520 126 143 176 195 324 520 709 1070 1630
2019-10-07 13:30 1.42 311 5180 (2010) 112 (1989) 520 126 143 176 195 324 520 709 1070 1630
2019-10-07 12:30 1.44 320 5180 (2010) 112 (1989) 520 126 143 176 195 324 520 709 1070 1630
2019-10-07 11:30 1.38 294 5180 (2010) 112 (1989) 520 126 143 176 195 324 520 709 1070 1630
2019-10-07 10:30 1.43 315 5180 (2010) 112 (1989) 520 126 143 176 195 324 520 709 1070 1630
2019-10-07 09:30 1.45 324 5180 (2010) 112 (1989) 520 126 143 176 195 324 520 709 1070 1630
2019-10-07 08:30 1.44 320 5180 (2010) 112 (1989) 520 126 143 176 195 324 520 709 1070 1630
2019-10-07 07:30 1.44 320 5180 (2010) 112 (1989) 520 126 143 176 195 324 520 709 1070 1630
2019-10-07 06:30 1.43 315 5180 (2010) 112 (1989) 520 126 143 176 195 324 520 709 1070 1630
2019-10-07 05:30 1.42 311 5180 (2010) 112 (1989) 520 126 143 176 195 324 520 709 1070 1630
2019-10-07 04:30 1.38 294 5180 (2010) 112 (1989) 520 126 143 176 195 324 520 709 1070 1630
2019-10-07 03:30 1.33 274 5180 (2010) 112 (1989) 520 126 143 176 195 324 520 709 1070 1630
2019-10-07 02:30 1.30 261 5180 (2010) 112 (1989) 520 126 143 176 195 324 520 709 1070 1630
2019-10-07 01:30 1.28 254 5180 (2010) 112 (1989) 520 126 143 176 195 324 520 709 1070 1630
2019-10-07 00:30 1.29 258 5180 (2010) 112 (1989) 520 126 143 176 195 324 520 709 1070 1630

A total of 171 rows are displayed for years 1970 through 2018.

Trips for Mountain Fork River (Oklahoma), Eagleville (07339000)

DateStartEndDistanceConditionDischargeHeightFishingDetails
Click for details2003-07-06 Rereg Dam US 70 Total trip distance: 3.2 miles3.2 Good 363 None NoneNone Fillmore, Brian
Wann, Denny
Fillmore, Brian; Wann, Denny
No notes for this trip<i>No notes for this trip</i> USGS Gauge Data:
Eagleville (07339000)
Discharge: 363
Height:
<b>USGS Gauge Data:</b></br />Eagleville (07339000)<br />Discharge: 363<br />Height:
Source: FillmoreSource: Fillmore

A total of 1 rows are displayed.

Trip Summary for Mountain Fork River (Oklahoma), Eagleville (07339000)

Miles3.2
Trips1
People2
Dates1
Years1
Months1
Rows1
Sources1

Condition Descriptions

Fishing Conditions

Fish Species

Notes

Classic Trip List

The classic River Trips application is still available for use. It is updated with the new system using a data retrofit. It is no longer maintained. The original River Trips application is no longer updated (as of 1 Dec 2016) but can be checked for errors or for the condition of the data before it was converted to the new system.